Terminal Aerodrome Forecast
Issued by NWS

Home | Current Version | Previous Version | Text Only | Print | Product List | Glossary On
Versions: 1 2 3 4 5 6 7 8 9 10 11 12
774
FTUS45 KABQ 300524
TAFGUP
TAF
KGUP 300524Z 3006/3106 VRB03KT P6SM FEW250
     FM301700 23016G26KT P6SM SCT250
     FM302100 24024G34KT P6SM SCT150
     FM310200 23015G25KT P6SM SCT100 SCT150=

USA.gov is the U.S. government's official web portal to all federal, state and local government web resources and services.